sensor_id;sensor_type;location;lat;lon;timestamp;P1;durP1;ratioP1;P2;durP2;ratioP2
1446;SDS011;717;51.522;7.266;2022-11-15T00:00:07;6.93;;;5.65;;
1446;SDS011;717;51.522;7.266;2022-11-15T00:02:37;6.78;;;5.57;;
1446;SDS011;717;51.522;7.266;2022-11-15T00:05:06;7.28;;;5.38;;
1446;SDS011;717;51.522;7.266;2022-11-15T00:07:35;7.38;;;5.00;;
1446;SDS011;717;51.522;7.266;2022-11-15T00:10:05;6.32;;;5.35;;
1446;SDS011;717;51.522;7.266;2022-11-15T00:12:34;7.32;;;4.80;;
1446;SDS011;717;51.522;7.266;2022-11-15T00:15:06;6.65;;;5.03;;
1446;SDS011;717;51.522;7.266;2022-11-15T00:17:35;6.20;;;4.63;;
1446;SDS011;717;51.522;7.266;2022-11-15T00:20:05;5.43;;;4.78;;
1446;SDS011;717;51.522;7.266;2022-11-15T00:22:34;5.95;;;4.97;;
1446;SDS011;717;51.522;7.266;2022-11-15T00:25:03;5.88;;;4.75;;
1446;SDS011;717;51.522;7.266;2022-11-15T00:27:33;4.93;;;4.43;;
1446;SDS011;717;51.522;7.266;2022-11-15T00:30:02;7.03;;;4.97;;
1446;SDS011;717;51.522;7.266;2022-11-15T00:32:34;10.07;;;4.55;;
1446;SDS011;717;51.522;7.266;2022-11-15T00:35:03;8.82;;;5.00;;
1446;SDS011;717;51.522;7.266;2022-11-15T00:37:33;6.05;;;4.45;;
1446;SDS011;717;51.522;7.266;2022-11-15T00:40:01;5.30;;;4.80;;
1446;SDS011;717;51.522;7.266;2022-11-15T00:42:30;6.38;;;4.97;;
1446;SDS011;717;51.522;7.266;2022-11-15T00:44:59;6.13;;;4.97;;
1446;SDS011;717;51.522;7.266;2022-11-15T00:47:30;6.35;;;4.72;;
1446;SDS011;717;51.522;7.266;2022-11-15T00:49:59;6.70;;;4.80;;
1446;SDS011;717;51.522;7.266;2022-11-15T00:52:28;8.52;;;5.55;;
1446;SDS011;717;51.522;7.266;2022-11-15T00:54:56;7.13;;;5.32;;
1446;SDS011;717;51.522;7.266;2022-11-15T00:57:25;5.50;;;4.97;;
1446;SDS011;717;51.522;7.266;2022-11-15T00:59:54;7.47;;;5.15;;
1446;SDS011;717;51.522;7.266;2022-11-15T01:02:22;6.95;;;5.10;;
1446;SDS011;717;51.522;7.266;2022-11-15T01:04:53;5.80;;;4.30;;
1446;SDS011;717;51.522;7.266;2022-11-15T01:07:22;7.60;;;4.40;;
1446;SDS011;717;51.522;7.266;2022-11-15T01:09:51;4.70;;;4.25;;
1446;SDS011;717;51.522;7.266;2022-11-15T01:12:20;8.10;;;4.75;;
1446;SDS011;717;51.522;7.266;2022-11-15T01:14:49;6.55;;;4.70;;
1446;SDS011;717;51.522;7.266;2022-11-15T01:17:17;7.68;;;4.90;;
1446;SDS011;717;51.522;7.266;2022-11-15T01:19:46;6.20;;;4.38;;
1446;SDS011;717;51.522;7.266;2022-11-15T01:22:17;6.45;;;4.60;;
1446;SDS011;717;51.522;7.266;2022-11-15T01:24:46;5.38;;;4.88;;
1446;SDS011;717;51.522;7.266;2022-11-15T01:27:16;5.20;;;3.92;;
1446;SDS011;717;51.522;7.266;2022-11-15T01:29:45;5.60;;;4.82;;
1446;SDS011;717;51.522;7.266;2022-11-15T01:32:14;5.57;;;5.07;;
1446;SDS011;717;51.522;7.266;2022-11-15T01:34:42;5.43;;;4.93;;
1446;SDS011;717;51.522;7.266;2022-11-15T01:37:11;8.15;;;4.97;;
1446;SDS011;717;51.522;7.266;2022-11-15T01:39:42;5.72;;;4.38;;
1446;SDS011;717;51.522;7.266;2022-11-15T01:42:11;5.20;;;4.38;;
1446;SDS011;717;51.522;7.266;2022-11-15T01:44:42;4.72;;;4.18;;
1446;SDS011;717;51.522;7.266;2022-11-15T01:47:14;5.45;;;4.43;;
1446;SDS011;717;51.522;7.266;2022-11-15T01:49:48;7.25;;;4.78;;
1446;SDS011;717;51.522;7.266;2022-11-15T01:52:23;5.95;;;4.50;;
1446;SDS011;717;51.522;7.266;2022-11-15T01:54:58;5.28;;;4.30;;
1446;SDS011;717;51.522;7.266;2022-11-15T01:57:30;5.10;;;4.18;;
1446;SDS011;717;51.522;7.266;2022-11-15T01:59:59;5.25;;;4.75;;
1446;SDS011;717;51.522;7.266;2022-11-15T02:02:29;6.28;;;4.75;;
1446;SDS011;717;51.522;7.266;2022-11-15T02:04:58;5.65;;;4.30;;
1446;SDS011;717;51.522;7.266;2022-11-15T02:07:26;10.15;;;5.00;;
1446;SDS011;717;51.522;7.266;2022-11-15T02:10:01;7.65;;;4.95;;
1446;SDS011;717;51.522;7.266;2022-11-15T02:12:34;5.50;;;4.40;;
1446;SDS011;717;51.522;7.266;2022-11-15T02:15:04;4.85;;;4.03;;
1446;SDS011;717;51.522;7.266;2022-11-15T02:17:40;6.18;;;4.60;;
1446;SDS011;717;51.522;7.266;2022-11-15T02:20:30;5.30;;;4.57;;
1446;SDS011;717;51.522;7.266;2022-11-15T02:23:15;5.50;;;4.60;;
1446;SDS011;717;51.522;7.266;2022-11-15T02:29:11;5.28;;;4.10;;
1446;SDS011;717;51.522;7.266;2022-11-15T02:31:53;5.30;;;4.32;;
1446;SDS011;717;51.522;7.266;2022-11-15T02:34:28;4.68;;;4.18;;
1446;SDS011;717;51.522;7.266;2022-11-15T02:37:03;5.32;;;4.53;;
1446;SDS011;717;51.522;7.266;2022-11-15T02:39:41;4.65;;;4.25;;
1446;SDS011;717;51.522;7.266;2022-11-15T02:42:18;6.80;;;4.65;;
1446;SDS011;717;51.522;7.266;2022-11-15T02:45:04;5.57;;;4.32;;
1446;SDS011;717;51.522;7.266;2022-11-15T02:47:41;4.38;;;3.85;;
1446;SDS011;717;51.522;7.266;2022-11-15T02:50:12;6.03;;;4.15;;
1446;SDS011;717;51.522;7.266;2022-11-15T02:52:44;6.05;;;4.10;;
1446;SDS011;717;51.522;7.266;2022-11-15T02:55:27;7.93;;;4.70;;
1446;SDS011;717;51.522;7.266;2022-11-15T02:58:01;6.13;;;4.35;;
1446;SDS011;717;51.522;7.266;2022-11-15T03:00:47;6.60;;;4.25;;
1446;SDS011;717;51.522;7.266;2022-11-15T03:03:29;4.88;;;4.05;;
1446;SDS011;717;51.522;7.266;2022-11-15T03:06:14;5.85;;;4.78;;
1446;SDS011;717;51.522;7.266;2022-11-15T03:08:53;5.63;;;4.65;;
1446;SDS011;717;51.522;7.266;2022-11-15T03:11:31;6.35;;;4.70;;
1446;SDS011;717;51.522;7.266;2022-11-15T03:14:06;8.02;;;5.18;;
1446;SDS011;717;51.522;7.266;2022-11-15T03:16:41;6.13;;;4.90;;
1446;SDS011;717;51.522;7.266;2022-11-15T03:19:20;6.10;;;4.80;;
1446;SDS011;717;51.522;7.266;2022-11-15T03:21:56;7.45;;;4.78;;
1446;SDS011;717;51.522;7.266;2022-11-15T03:24:28;5.82;;;4.43;;
1446;SDS011;717;51.522;7.266;2022-11-15T03:26:59;7.35;;;5.05;;
1446;SDS011;717;51.522;7.266;2022-11-15T03:29:30;7.28;;;5.05;;
1446;SDS011;717;51.522;7.266;2022-11-15T03:32:02;8.32;;;5.20;;
1446;SDS011;717;51.522;7.266;2022-11-15T03:34:39;6.57;;;4.65;;
1446;SDS011;717;51.522;7.266;2022-11-15T03:37:11;6.93;;;5.22;;
1446;SDS011;717;51.522;7.266;2022-11-15T03:39:43;6.78;;;5.30;;
1446;SDS011;717;51.522;7.266;2022-11-15T03:42:14;6.32;;;5.00;;
1446;SDS011;717;51.522;7.266;2022-11-15T03:44:51;5.90;;;5.15;;
1446;SDS011;717;51.522;7.266;2022-11-15T03:47:27;5.75;;;4.68;;
1446;SDS011;717;51.522;7.266;2022-11-15T03:50:04;5.65;;;5.05;;
1446;SDS011;717;51.522;7.266;2022-11-15T03:52:37;7.47;;;5.25;;
1446;SDS011;717;51.522;7.266;2022-11-15T03:55:08;5.45;;;4.75;;
1446;SDS011;717;51.522;7.266;2022-11-15T03:57:39;5.22;;;4.72;;
1446;SDS011;717;51.522;7.266;2022-11-15T04:00:08;6.45;;;4.97;;
1446;SDS011;717;51.522;7.266;2022-11-15T04:02:38;5.50;;;4.50;;
1446;SDS011;717;51.522;7.266;2022-11-15T04:05:10;6.32;;;4.70;;
1446;SDS011;717;51.522;7.266;2022-11-15T04:07:39;5.60;;;4.65;;
1446;SDS011;717;51.522;7.266;2022-11-15T04:10:08;6.32;;;5.05;;
1446;SDS011;717;51.522;7.266;2022-11-15T04:12:38;9.70;;;5.32;;
1446;SDS011;717;51.522;7.266;2022-11-15T04:15:10;7.07;;;5.03;;
1446;SDS011;717;51.522;7.266;2022-11-15T04:17:40;6.75;;;5.35;;
1446;SDS011;717;51.522;7.266;2022-11-15T04:20:14;5.88;;;4.95;;
1446;SDS011;717;51.522;7.266;2022-11-15T04:22:57;5.43;;;4.82;;
1446;SDS011;717;51.522;7.266;2022-11-15T04:25:39;6.70;;;5.13;;
1446;SDS011;717;51.522;7.266;2022-11-15T04:28:08;5.57;;;4.88;;
1446;SDS011;717;51.522;7.266;2022-11-15T04:30:38;7.50;;;5.40;;
1446;SDS011;717;51.522;7.266;2022-11-15T04:33:07;6.43;;;4.65;;
1446;SDS011;717;51.522;7.266;2022-11-15T04:35:38;5.30;;;4.80;;
1446;SDS011;717;51.522;7.266;2022-11-15T04:38:08;6.72;;;4.78;;
1446;SDS011;717;51.522;7.266;2022-11-15T04:40:35;4.80;;;4.32;;
1446;SDS011;717;51.522;7.266;2022-11-15T04:43:04;6.13;;;4.90;;
1446;SDS011;717;51.522;7.266;2022-11-15T04:45:33;6.45;;;5.10;;
1446;SDS011;717;51.522;7.266;2022-11-15T04:48:02;5.93;;;4.57;;
1446;SDS011;717;51.522;7.266;2022-11-15T04:50:31;6.32;;;4.93;;
1446;SDS011;717;51.522;7.266;2022-11-15T04:53:02;7.00;;;5.40;;
1446;SDS011;717;51.522;7.266;2022-11-15T04:55:31;5.25;;;4.72;;
1446;SDS011;717;51.522;7.266;2022-11-15T04:58:00;5.72;;;4.78;;
1446;SDS011;717;51.522;7.266;2022-11-15T05:00:29;7.05;;;5.00;;
1446;SDS011;717;51.522;7.266;2022-11-15T05:02:58;5.72;;;5.00;;
1446;SDS011;717;51.522;7.266;2022-11-15T05:05:39;7.68;;;4.80;;
1446;SDS011;717;51.522;7.266;2022-11-15T05:08:11;5.40;;;4.50;;
1446;SDS011;717;51.522;7.266;2022-11-15T05:10:39;6.30;;;4.95;;
1446;SDS011;717;51.522;7.266;2022-11-15T05:13:08;6.30;;;5.03;;
1446;SDS011;717;51.522;7.266;2022-11-15T05:15:37;7.00;;;4.72;;
1446;SDS011;717;51.522;7.266;2022-11-15T05:18:05;5.50;;;4.97;;
1446;SDS011;717;51.522;7.266;2022-11-15T05:20:34;5.18;;;4.75;;
1446;SDS011;717;51.522;7.266;2022-11-15T05:23:03;5.60;;;4.88;;
1446;SDS011;717;51.522;7.266;2022-11-15T05:25:35;5.38;;;4.88;;
1446;SDS011;717;51.522;7.266;2022-11-15T05:28:04;5.80;;;4.68;;
1446;SDS011;717;51.522;7.266;2022-11-15T05:30:32;6.20;;;5.13;;
1446;SDS011;717;51.522;7.266;2022-11-15T05:33:01;5.38;;;4.88;;
1446;SDS011;717;51.522;7.266;2022-11-15T05:35:31;5.43;;;4.93;;
1446;SDS011;717;51.522;7.266;2022-11-15T05:38:04;6.05;;;5.10;;
1446;SDS011;717;51.522;7.266;2022-11-15T05:40:36;5.80;;;5.20;;
1446;SDS011;717;51.522;7.266;2022-11-15T05:43:04;5.10;;;4.70;;
1446;SDS011;717;51.522;7.266;2022-11-15T05:45:33;6.22;;;5.00;;
1446;SDS011;717;51.522;7.266;2022-11-15T05:48:04;6.22;;;5.63;;
1446;SDS011;717;51.522;7.266;2022-11-15T05:50:35;5.40;;;4.90;;
1446;SDS011;717;51.522;7.266;2022-11-15T05:53:06;6.05;;;5.45;;
1446;SDS011;717;51.522;7.266;2022-11-15T05:55:38;5.82;;;5.13;;
1446;SDS011;717;51.522;7.266;2022-11-15T05:58:07;5.35;;;4.65;;
1446;SDS011;717;51.522;7.266;2022-11-15T06:00:36;5.63;;;4.72;;
1446;SDS011;717;51.522;7.266;2022-11-15T06:03:05;5.55;;;5.15;;
1446;SDS011;717;51.522;7.266;2022-11-15T06:05:33;5.22;;;4.75;;
1446;SDS011;717;51.522;7.266;2022-11-15T06:08:02;6.20;;;5.45;;
1446;SDS011;717;51.522;7.266;2022-11-15T06:13:04;5.90;;;5.30;;
1446;SDS011;717;51.522;7.266;2022-11-15T06:15:32;5.25;;;4.75;;
1446;SDS011;717;51.522;7.266;2022-11-15T06:18:01;5.47;;;4.97;;
1446;SDS011;717;51.522;7.266;2022-11-15T06:20:30;5.72;;;5.13;;
1446;SDS011;717;51.522;7.266;2022-11-15T06:22:59;5.80;;;5.22;;
1446;SDS011;717;51.522;7.266;2022-11-15T06:25:29;5.45;;;4.97;;
1446;SDS011;717;51.522;7.266;2022-11-15T06:27:59;5.20;;;4.78;;
1446;SDS011;717;51.522;7.266;2022-11-15T06:30:30;5.35;;;4.85;;
1446;SDS011;717;51.522;7.266;2022-11-15T06:32:59;5.45;;;4.95;;
1446;SDS011;717;51.522;7.266;2022-11-15T06:35:29;5.63;;;5.00;;
1446;SDS011;717;51.522;7.266;2022-11-15T06:38:01;7.20;;;5.15;;
1446;SDS011;717;51.522;7.266;2022-11-15T06:40:33;5.35;;;4.85;;
1446;SDS011;717;51.522;7.266;2022-11-15T06:43:03;4.38;;;3.97;;
1446;SDS011;717;51.522;7.266;2022-11-15T06:45:35;5.97;;;4.22;;
1446;SDS011;717;51.522;7.266;2022-11-15T06:48:05;4.32;;;3.92;;
1446;SDS011;717;51.522;7.266;2022-11-15T06:50:34;4.25;;;3.50;;
1446;SDS011;717;51.522;7.266;2022-11-15T06:53:03;3.80;;;3.50;;
1446;SDS011;717;51.522;7.266;2022-11-15T06:55:31;3.70;;;3.30;;
1446;SDS011;717;51.522;7.266;2022-11-15T06:58:00;3.42;;;3.13;;
1446;SDS011;717;51.522;7.266;2022-11-15T07:00:29;2.85;;;2.65;;
1446;SDS011;717;51.522;7.266;2022-11-15T07:03:01;3.92;;;2.65;;
1446;SDS011;717;51.522;7.266;2022-11-15T07:05:31;3.75;;;2.97;;
1446;SDS011;717;51.522;7.266;2022-11-15T07:08:00;3.17;;;2.67;;
1446;SDS011;717;51.522;7.266;2022-11-15T07:10:29;2.70;;;2.50;;
1446;SDS011;717;51.522;7.266;2022-11-15T07:12:58;3.17;;;2.83;;
1446;SDS011;717;51.522;7.266;2022-11-15T07:15:26;2.35;;;2.15;;
1446;SDS011;717;51.522;7.266;2022-11-15T07:17:55;3.70;;;2.45;;
1446;SDS011;717;51.522;7.266;2022-11-15T07:20:30;3.47;;;2.80;;
1446;SDS011;717;51.522;7.266;2022-11-15T07:22:59;2.38;;;2.17;;
1446;SDS011;717;51.522;7.266;2022-11-15T07:25:28;2.95;;;2.20;;
1446;SDS011;717;51.522;7.266;2022-11-15T07:27:58;2.47;;;2.13;;
1446;SDS011;717;51.522;7.266;2022-11-15T07:30:27;3.40;;;2.30;;
1446;SDS011;717;51.522;7.266;2022-11-15T07:32:56;2.40;;;1.92;;
1446;SDS011;717;51.522;7.266;2022-11-15T07:35:26;2.20;;;1.90;;
1446;SDS011;717;51.522;7.266;2022-11-15T07:37:59;1.95;;;1.77;;
1446;SDS011;717;51.522;7.266;2022-11-15T07:40:29;2.22;;;1.95;;
1446;SDS011;717;51.522;7.266;2022-11-15T07:43:00;1.88;;;1.75;;
1446;SDS011;717;51.522;7.266;2022-11-15T07:45:29;2.10;;;1.90;;
1446;SDS011;717;51.522;7.266;2022-11-15T07:47:59;2.67;;;1.88;;
1446;SDS011;717;51.522;7.266;2022-11-15T07:50:28;2.65;;;1.70;;
1446;SDS011;717;51.522;7.266;2022-11-15T07:53:00;1.90;;;1.70;;
1446;SDS011;717;51.522;7.266;2022-11-15T07:55:29;2.33;;;1.90;;
1446;SDS011;717;51.522;7.266;2022-11-15T07:58:01;1.65;;;1.55;;
1446;SDS011;717;51.522;7.266;2022-11-15T08:00:31;1.83;;;1.73;;
1446;SDS011;717;51.522;7.266;2022-11-15T08:03:01;2.20;;;1.70;;
1446;SDS011;717;51.522;7.266;2022-11-15T08:05:30;2.28;;;1.65;;
1446;SDS011;717;51.522;7.266;2022-11-15T08:08:02;2.85;;;1.98;;
1446;SDS011;717;51.522;7.266;2022-11-15T08:10:32;3.25;;;1.90;;
1446;SDS011;717;51.522;7.266;2022-11-15T08:13:02;3.00;;;2.10;;
1446;SDS011;717;51.522;7.266;2022-11-15T08:15:32;1.95;;;1.70;;
1446;SDS011;717;51.522;7.266;2022-11-15T08:18:03;2.10;;;1.90;;
1446;SDS011;717;51.522;7.266;2022-11-15T08:20:33;2.05;;;1.58;;
1446;SDS011;717;51.522;7.266;2022-11-15T08:23:04;2.67;;;1.58;;
1446;SDS011;717;51.522;7.266;2022-11-15T08:25:34;1.65;;;1.50;;
1446;SDS011;717;51.522;7.266;2022-11-15T08:28:04;1.42;;;1.30;;
1446;SDS011;717;51.522;7.266;2022-11-15T08:30:35;1.83;;;1.30;;
1446;SDS011;717;51.522;7.266;2022-11-15T08:33:09;2.13;;;1.30;;
1446;SDS011;717;51.522;7.266;2022-11-15T08:35:38;2.40;;;1.27;;
1446;SDS011;717;51.522;7.266;2022-11-15T08:38:10;1.55;;;1.40;;
1446;SDS011;717;51.522;7.266;2022-11-15T08:40:39;3.05;;;1.30;;
1446;SDS011;717;51.522;7.266;2022-11-15T08:43:08;1.25;;;1.10;;
1446;SDS011;717;51.522;7.266;2022-11-15T08:45:36;2.55;;;1.20;;
1446;SDS011;717;51.522;7.266;2022-11-15T08:48:05;1.40;;;1.30;;
1446;SDS011;717;51.522;7.266;2022-11-15T08:50:34;2.00;;;1.17;;
1446;SDS011;717;51.522;7.266;2022-11-15T08:53:05;1.63;;;1.33;;
1446;SDS011;717;51.522;7.266;2022-11-15T08:55:38;1.40;;;1.30;;
1446;SDS011;717;51.522;7.266;2022-11-15T08:58:07;1.25;;;1.15;;
1446;SDS011;717;51.522;7.266;2022-11-15T09:00:36;1.30;;;1.05;;
1446;SDS011;717;51.522;7.266;2022-11-15T09:03:05;2.97;;;1.30;;
1446;SDS011;717;51.522;7.266;2022-11-15T09:05:35;2.97;;;1.23;;
1446;SDS011;717;51.522;7.266;2022-11-15T09:08:04;1.98;;;1.30;;
1446;SDS011;717;51.522;7.266;2022-11-15T09:10:33;1.35;;;0.90;;
1446;SDS011;717;51.522;7.266;2022-11-15T09:13:05;1.30;;;0.98;;
1446;SDS011;717;51.522;7.266;2022-11-15T09:15:34;1.02;;;0.93;;
1446;SDS011;717;51.522;7.266;2022-11-15T09:18:02;1.65;;;1.00;;
1446;SDS011;717;51.522;7.266;2022-11-15T09:20:31;1.52;;;0.93;;
1446;SDS011;717;51.522;7.266;2022-11-15T09:23:00;2.00;;;1.00;;
1446;SDS011;717;51.522;7.266;2022-11-15T09:25:30;1.52;;;1.05;;
1446;SDS011;717;51.522;7.266;2022-11-15T09:27:59;2.85;;;0.93;;
1446;SDS011;717;51.522;7.266;2022-11-15T09:30:30;2.22;;;1.42;;
1446;SDS011;717;51.522;7.266;2022-11-15T09:33:05;1.80;;;1.00;;
1446;SDS011;717;51.522;7.266;2022-11-15T09:35:35;2.88;;;1.30;;
1446;SDS011;717;51.522;7.266;2022-11-15T09:38:06;2.67;;;1.30;;
1446;SDS011;717;51.522;7.266;2022-11-15T09:40:35;1.95;;;0.80;;
1446;SDS011;717;51.522;7.266;2022-11-15T09:43:08;3.00;;;1.13;;
1446;SDS011;717;51.522;7.266;2022-11-15T09:45:55;0.85;;;0.70;;
1446;SDS011;717;51.522;7.266;2022-11-15T09:48:35;0.80;;;0.70;;
1446;SDS011;717;51.522;7.266;2022-11-15T09:51:21;1.33;;;0.80;;
1446;SDS011;717;51.522;7.266;2022-11-15T09:53:57;1.80;;;0.80;;
1446;SDS011;717;51.522;7.266;2022-11-15T09:56:31;2.35;;;1.15;;
1446;SDS011;717;51.522;7.266;2022-11-15T09:59:15;3.92;;;1.17;;
1446;SDS011;717;51.522;7.266;2022-11-15T10:02:00;1.98;;;0.95;;
1446;SDS011;717;51.522;7.266;2022-11-15T10:04:40;2.72;;;0.95;;
1446;SDS011;717;51.522;7.266;2022-11-15T10:07:13;3.35;;;0.80;;
1446;SDS011;717;51.522;7.266;2022-11-15T10:09:45;2.63;;;0.90;;
1446;SDS011;717;51.522;7.266;2022-11-15T10:12:20;3.53;;;1.08;;
1446;SDS011;717;51.522;7.266;2022-11-15T10:14:50;1.58;;;0.65;;
1446;SDS011;717;51.522;7.266;2022-11-15T10:17:37;1.50;;;0.70;;
1446;SDS011;717;51.522;7.266;2022-11-15T10:20:23;1.75;;;0.73;;
1446;SDS011;717;51.522;7.266;2022-11-15T10:22:53;3.45;;;0.90;;
1446;SDS011;717;51.522;7.266;2022-11-15T10:25:25;1.83;;;0.55;;
1446;SDS011;717;51.522;7.266;2022-11-15T10:27:56;0.43;;;0.40;;
1446;SDS011;717;51.522;7.266;2022-11-15T10:30:31;2.58;;;0.80;;
1446;SDS011;717;51.522;7.266;2022-11-15T10:33:13;1.60;;;0.68;;
1446;SDS011;717;51.522;7.266;2022-11-15T10:38:51;1.17;;;0.50;;
1446;SDS011;717;51.522;7.266;2022-11-15T10:41:23;0.55;;;0.40;;
1446;SDS011;717;51.522;7.266;2022-11-15T10:44:07;0.95;;;0.52;;
1446;SDS011;717;51.522;7.266;2022-11-15T10:46:46;1.13;;;0.40;;
1446;SDS011;717;51.522;7.266;2022-11-15T10:49:34;1.52;;;0.60;;
1446;SDS011;717;51.522;7.266;2022-11-15T10:52:04;1.42;;;0.50;;
1446;SDS011;717;51.522;7.266;2022-11-15T10:54:44;1.20;;;0.60;;
1446;SDS011;717;51.522;7.266;2022-11-15T10:57:17;1.08;;;0.57;;
1446;SDS011;717;51.522;7.266;2022-11-15T10:59:48;0.63;;;0.60;;
1446;SDS011;717;51.522;7.266;2022-11-15T11:05:26;1.48;;;0.70;;
1446;SDS011;717;51.522;7.266;2022-11-15T11:07:57;1.13;;;0.63;;
1446;SDS011;717;51.522;7.266;2022-11-15T11:10:27;0.57;;;0.40;;
1446;SDS011;717;51.522;7.266;2022-11-15T11:13:12;2.63;;;0.70;;
1446;SDS011;717;51.522;7.266;2022-11-15T11:15:41;0.93;;;0.60;;
1446;SDS011;717;51.522;7.266;2022-11-15T11:18:15;2.15;;;0.70;;
1446;SDS011;717;51.522;7.266;2022-11-15T11:20:56;1.30;;;0.50;;
1446;SDS011;717;51.522;7.266;2022-11-15T11:23:35;1.25;;;0.65;;
1446;SDS011;717;51.522;7.266;2022-11-15T11:26:15;2.15;;;0.60;;
1446;SDS011;717;51.522;7.266;2022-11-15T11:29:00;1.40;;;0.50;;
1446;SDS011;717;51.522;7.266;2022-11-15T11:31:36;2.47;;;0.60;;
1446;SDS011;717;51.522;7.266;2022-11-15T11:34:16;1.60;;;0.60;;
1446;SDS011;717;51.522;7.266;2022-11-15T11:37:02;2.67;;;0.60;;
1446;SDS011;717;51.522;7.266;2022-11-15T11:39:40;1.27;;;0.50;;
1446;SDS011;717;51.522;7.266;2022-11-15T11:42:17;2.78;;;0.60;;
1446;SDS011;717;51.522;7.266;2022-11-15T11:44:58;1.08;;;0.50;;
1446;SDS011;717;51.522;7.266;2022-11-15T11:47:36;1.40;;;0.60;;
1446;SDS011;717;51.522;7.266;2022-11-15T11:50:10;1.77;;;0.70;;
1446;SDS011;717;51.522;7.266;2022-11-15T11:52:48;0.65;;;0.40;;
1446;SDS011;717;51.522;7.266;2022-11-15T11:55:25;0.93;;;0.60;;
1446;SDS011;717;51.522;7.266;2022-11-15T11:58:02;2.22;;;0.93;;
1446;SDS011;717;51.522;7.266;2022-11-15T12:00:38;2.13;;;0.68;;
1446;SDS011;717;51.522;7.266;2022-11-15T12:03:12;1.90;;;0.93;;
1446;SDS011;717;51.522;7.266;2022-11-15T12:05:48;1.60;;;0.68;;
1446;SDS011;717;51.522;7.266;2022-11-15T12:08:29;1.77;;;1.02;;
1446;SDS011;717;51.522;7.266;2022-11-15T12:11:06;0.70;;;0.50;;
1446;SDS011;717;51.522;7.266;2022-11-15T12:13:38;1.38;;;0.55;;
1446;SDS011;717;51.522;7.266;2022-11-15T12:16:09;2.75;;;0.65;;
1446;SDS011;717;51.522;7.266;2022-11-15T12:18:41;3.88;;;0.63;;
1446;SDS011;717;51.522;7.266;2022-11-15T12:21:15;0.50;;;0.45;;
1446;SDS011;717;51.522;7.266;2022-11-15T12:23:52;0.77;;;0.40;;
1446;SDS011;717;51.522;7.266;2022-11-15T12:26:30;0.88;;;0.40;;
1446;SDS011;717;51.522;7.266;2022-11-15T12:29:03;0.90;;;0.40;;
1446;SDS011;717;51.522;7.266;2022-11-15T12:31:38;0.77;;;0.55;;
1446;SDS011;717;51.522;7.266;2022-11-15T12:34:13;1.83;;;0.70;;
1446;SDS011;717;51.522;7.266;2022-11-15T12:36:58;1.77;;;0.65;;
1446;SDS011;717;51.522;7.266;2022-11-15T12:42:57;2.28;;;0.75;;
1446;SDS011;717;51.522;7.266;2022-11-15T12:45:53;1.25;;;0.40;;
1446;SDS011;717;51.522;7.266;2022-11-15T12:57:36;1.65;;;0.40;;
1446;SDS011;717;51.522;7.266;2022-11-15T13:03:24;0.75;;;0.30;;
1446;SDS011;717;51.522;7.266;2022-11-15T13:05:58;0.47;;;0.28;;
1446;SDS011;717;51.522;7.266;2022-11-15T13:08:57;1.08;;;0.38;;
1446;SDS011;717;51.522;7.266;2022-11-15T13:11:42;1.40;;;0.43;;
1446;SDS011;717;51.522;7.266;2022-11-15T13:17:26;2.35;;;0.40;;
1446;SDS011;717;51.522;7.266;2022-11-15T13:20:19;1.40;;;0.60;;
1446;SDS011;717;51.522;7.266;2022-11-15T13:22:59;2.35;;;0.52;;
1446;SDS011;717;51.522;7.266;2022-11-15T13:25:44;3.58;;;0.45;;
1446;SDS011;717;51.522;7.266;2022-11-15T13:28:21;1.85;;;0.35;;
1446;SDS011;717;51.522;7.266;2022-11-15T13:30:58;1.92;;;0.38;;
1446;SDS011;717;51.522;7.266;2022-11-15T13:33:30;2.50;;;0.60;;
1446;SDS011;717;51.522;7.266;2022-11-15T13:36:01;4.35;;;0.63;;
1446;SDS011;717;51.522;7.266;2022-11-15T13:38:32;2.28;;;0.60;;
1446;SDS011;717;51.522;7.266;2022-11-15T13:41:11;0.65;;;0.50;;
1446;SDS011;717;51.522;7.266;2022-11-15T13:43:46;4.47;;;0.73;;
1446;SDS011;717;51.522;7.266;2022-11-15T13:46:19;3.90;;;0.70;;
1446;SDS011;717;51.522;7.266;2022-11-15T13:48:53;1.85;;;0.50;;
1446;SDS011;717;51.522;7.266;2022-11-15T13:51:28;2.60;;;0.80;;
1446;SDS011;717;51.522;7.266;2022-11-15T13:54:08;3.38;;;0.50;;
1446;SDS011;717;51.522;7.266;2022-11-15T13:56:45;3.85;;;0.55;;
1446;SDS011;717;51.522;7.266;2022-11-15T13:59:24;4.75;;;0.70;;
1446;SDS011;717;51.522;7.266;2022-11-15T14:01:57;2.00;;;0.50;;
1446;SDS011;717;51.522;7.266;2022-11-15T14:04:29;1.13;;;0.50;;
1446;SDS011;717;51.522;7.266;2022-11-15T14:06:59;1.40;;;0.60;;
1446;SDS011;717;51.522;7.266;2022-11-15T14:09:31;1.38;;;0.50;;
1446;SDS011;717;51.522;7.266;2022-11-15T14:12:02;2.10;;;0.75;;
1446;SDS011;717;51.522;7.266;2022-11-15T14:14:54;0.82;;;0.50;;
1446;SDS011;717;51.522;7.266;2022-11-15T14:17:35;1.35;;;0.70;;
1446;SDS011;717;51.522;7.266;2022-11-15T14:20:26;2.75;;;0.68;;
1446;SDS011;717;51.522;7.266;2022-11-15T14:22:57;1.30;;;0.60;;
1446;SDS011;717;51.522;7.266;2022-11-15T14:25:27;4.70;;;0.60;;
1446;SDS011;717;51.522;7.266;2022-11-15T14:28:11;2.53;;;0.65;;
1446;SDS011;717;51.522;7.266;2022-11-15T14:30:56;2.25;;;0.60;;
1446;SDS011;717;51.522;7.266;2022-11-15T14:33:29;2.38;;;0.70;;
1446;SDS011;717;51.522;7.266;2022-11-15T14:36:02;1.52;;;0.85;;
1446;SDS011;717;51.522;7.266;2022-11-15T14:38:32;2.60;;;0.80;;
1446;SDS011;717;51.522;7.266;2022-11-15T14:41:00;2.03;;;0.70;;
1446;SDS011;717;51.522;7.266;2022-11-15T14:43:30;0.93;;;0.68;;
1446;SDS011;717;51.522;7.266;2022-11-15T14:45:59;2.90;;;0.85;;
1446;SDS011;717;51.522;7.266;2022-11-15T14:48:30;2.00;;;0.70;;
1446;SDS011;717;51.522;7.266;2022-11-15T14:50:59;2.25;;;1.15;;
1446;SDS011;717;51.522;7.266;2022-11-15T14:53:28;1.25;;;0.98;;
1446;SDS011;717;51.522;7.266;2022-11-15T14:55:56;2.92;;;1.13;;
1446;SDS011;717;51.522;7.266;2022-11-15T14:58:25;1.77;;;1.00;;
1446;SDS011;717;51.522;7.266;2022-11-15T15:00:53;1.73;;;1.25;;
1446;SDS011;717;51.522;7.266;2022-11-15T15:03:22;2.22;;;1.05;;
1446;SDS011;717;51.522;7.266;2022-11-15T15:05:53;2.63;;;1.17;;
1446;SDS011;717;51.522;7.266;2022-11-15T15:08:22;1.58;;;1.00;;
1446;SDS011;717;51.522;7.266;2022-11-15T15:10:50;3.53;;;1.05;;
1446;SDS011;717;51.522;7.266;2022-11-15T15:13:20;2.67;;;1.02;;
1446;SDS011;717;51.522;7.266;2022-11-15T15:15:49;2.05;;;1.20;;
1446;SDS011;717;51.522;7.266;2022-11-15T15:18:19;2.00;;;1.10;;
1446;SDS011;717;51.522;7.266;2022-11-15T15:20:49;1.45;;;1.08;;
1446;SDS011;717;51.522;7.266;2022-11-15T15:23:27;3.15;;;1.45;;
1446;SDS011;717;51.522;7.266;2022-11-15T15:25:56;3.42;;;1.15;;
1446;SDS011;717;51.522;7.266;2022-11-15T15:28:25;3.05;;;1.98;;
1446;SDS011;717;51.522;7.266;2022-11-15T15:30:54;3.50;;;1.58;;
1446;SDS011;717;51.522;7.266;2022-11-15T15:33:22;1.58;;;1.00;;
1446;SDS011;717;51.522;7.266;2022-11-15T15:35:51;2.08;;;1.20;;
1446;SDS011;717;51.522;7.266;2022-11-15T15:38:23;3.22;;;1.30;;
1446;SDS011;717;51.522;7.266;2022-11-15T15:40:51;1.95;;;1.20;;
1446;SDS011;717;51.522;7.266;2022-11-15T15:43:20;1.23;;;1.05;;
1446;SDS011;717;51.522;7.266;2022-11-15T15:45:48;2.88;;;1.17;;
1446;SDS011;717;51.522;7.266;2022-11-15T15:48:17;1.50;;;1.13;;
1446;SDS011;717;51.522;7.266;2022-11-15T15:50:46;2.20;;;1.30;;
1446;SDS011;717;51.522;7.266;2022-11-15T15:53:14;2.63;;;1.15;;
1446;SDS011;717;51.522;7.266;2022-11-15T15:55:45;1.90;;;1.05;;
1446;SDS011;717;51.522;7.266;2022-11-15T15:58:14;1.58;;;1.15;;
1446;SDS011;717;51.522;7.266;2022-11-15T16:00:42;1.92;;;1.20;;
1446;SDS011;717;51.522;7.266;2022-11-15T16:03:11;2.80;;;1.02;;
1446;SDS011;717;51.522;7.266;2022-11-15T16:05:40;2.83;;;1.38;;
1446;SDS011;717;51.522;7.266;2022-11-15T16:08:10;1.48;;;1.13;;
1446;SDS011;717;51.522;7.266;2022-11-15T16:10:47;3.05;;;1.10;;
1446;SDS011;717;51.522;7.266;2022-11-15T16:13:17;3.05;;;1.02;;
1446;SDS011;717;51.522;7.266;2022-11-15T16:15:45;3.72;;;1.20;;
1446;SDS011;717;51.522;7.266;2022-11-15T16:18:20;2.08;;;1.20;;
1446;SDS011;717;51.522;7.266;2022-11-15T16:20:48;2.25;;;1.00;;
1446;SDS011;717;51.522;7.266;2022-11-15T16:23:21;2.55;;;1.10;;
1446;SDS011;717;51.522;7.266;2022-11-15T16:25:53;2.35;;;1.10;;
1446;SDS011;717;51.522;7.266;2022-11-15T16:28:23;1.83;;;1.05;;
1446;SDS011;717;51.522;7.266;2022-11-15T16:30:59;2.38;;;1.40;;
1446;SDS011;717;51.522;7.266;2022-11-15T16:33:28;2.75;;;1.30;;